createdAt,value
2018-10-16T00:00:50.851Z,17.84
2018-10-16T00:04:54.898Z,17.79
2018-10-16T00:08:59.056Z,17.74
2018-10-16T00:13:11.137Z,17.73
2018-10-16T00:17:15.088Z,17.70
2018-10-16T00:21:19.312Z,17.65
2018-10-16T00:25:24.431Z,17.56
2018-10-16T00:29:28.457Z,17.53
2018-10-16T00:33:32.353Z,17.49
2018-10-16T00:37:36.644Z,17.38
2018-10-16T00:41:41.076Z,17.35
2018-10-16T00:45:45.016Z,17.31
2018-10-16T00:49:49.154Z,17.24
2018-10-16T00:53:53.055Z,17.17
2018-10-16T00:57:56.965Z,17.09
2018-10-16T01:02:00.885Z,17.03
2018-10-16T01:06:04.826Z,16.99
2018-10-16T01:10:09.975Z,16.96
2018-10-16T01:14:13.857Z,16.92
2018-10-16T01:18:17.779Z,16.84
2018-10-16T01:22:22.026Z,16.81
2018-10-16T01:26:25.956Z,16.76
2018-10-16T01:30:30.005Z,16.71
2018-10-16T01:34:33.910Z,16.63
2018-10-16T01:38:37.832Z,16.59
2018-10-16T01:42:42.166Z,16.55
2018-10-16T01:46:46.277Z,16.48
2018-10-16T01:50:50.190Z,16.43
2018-10-16T01:54:54.180Z,16.41
2018-10-16T01:58:58.435Z,16.36
2018-10-16T02:03:02.412Z,16.36
2018-10-16T02:07:06.345Z,16.37
2018-10-16T02:11:10.351Z,16.33
2018-10-16T02:15:14.324Z,16.28
2018-10-16T02:19:18.266Z,16.24
2018-10-16T02:23:22.208Z,16.19
2018-10-16T02:27:26.205Z,16.13
2018-10-16T02:31:30.133Z,16.04
2018-10-16T02:35:34.072Z,15.98
2018-10-16T02:39:38.014Z,15.97
2018-10-16T02:43:41.980Z,15.96
2018-10-16T02:52:04.208Z,15.90
2018-10-16T02:56:08.922Z,15.86
2018-10-16T03:00:12.849Z,15.90
2018-10-16T03:04:17.453Z,15.91
2018-10-16T03:08:21.411Z,15.90
2018-10-16T03:12:25.350Z,15.91
2018-10-16T03:16:29.353Z,15.93
2018-10-16T03:20:33.329Z,15.94
2018-10-16T03:24:37.348Z,15.91
2018-10-16T03:28:41.589Z,15.89
2018-10-16T03:32:45.564Z,15.83
2018-10-16T03:36:49.555Z,15.75
2018-10-16T03:40:53.549Z,15.68
2018-10-16T03:44:57.483Z,15.63
2018-10-16T03:49:01.408Z,15.63
2018-10-16T03:53:06.017Z,15.60
2018-10-16T03:57:10.034Z,15.54
2018-10-16T04:01:14.298Z,15.50
2018-10-16T04:05:18.186Z,15.42
2018-10-16T04:09:22.122Z,15.37
2018-10-16T04:13:26.364Z,15.29
2018-10-16T04:17:30.268Z,15.20
2018-10-16T04:21:39.230Z,15.22
2018-10-16T04:25:43.527Z,15.17
2018-10-16T04:29:51.001Z,15.14
2018-10-16T04:33:58.663Z,15.08
2018-10-16T04:38:03.746Z,15.02
2018-10-16T04:42:11.599Z,14.97
2018-10-16T04:46:15.894Z,14.97
2018-10-16T04:50:25.942Z,14.94
2018-10-16T04:54:36.939Z,14.95
2018-10-16T04:58:43.021Z,14.91
2018-10-16T05:02:49.576Z,14.89
2018-10-16T05:06:54.255Z,14.90
2018-10-16T05:10:59.820Z,14.91
2018-10-16T05:15:06.167Z,14.91
2018-10-16T05:19:10.226Z,14.91
2018-10-16T05:23:14.140Z,14.91
2018-10-16T05:27:22.147Z,14.86
2018-10-16T05:31:26.324Z,14.82
2018-10-16T05:35:30.094Z,14.79
2018-10-16T05:39:35.332Z,14.77
2018-10-16T05:43:39.306Z,14.76
2018-10-16T05:47:48.092Z,14.76
2018-10-16T05:51:52.050Z,14.74
2018-10-16T05:56:03.139Z,14.74
2018-10-16T06:00:18.982Z,14.77
2018-10-16T06:04:22.966Z,14.84
2018-10-16T06:08:29.152Z,14.89
2018-10-16T06:12:33.873Z,14.96
2018-10-16T06:16:38.182Z,15.03
2018-10-16T06:20:46.639Z,15.08
2018-10-16T06:24:53.632Z,15.11
2018-10-16T06:29:09.335Z,15.16
2018-10-16T06:33:14.085Z,15.17
2018-10-16T06:37:19.529Z,15.23
2018-10-16T06:41:24.478Z,15.29
2018-10-16T06:45:29.348Z,15.39
2018-10-16T06:49:36.061Z,15.28
2018-10-16T06:53:40.980Z,15.31
2018-10-16T06:57:48.890Z,15.32
2018-10-16T07:01:57.670Z,15.44
2018-10-16T07:06:02.743Z,15.47
2018-10-16T07:10:11.070Z,15.52
2018-10-16T07:14:18.021Z,15.54
2018-10-16T07:18:22.404Z,15.59
2018-10-16T07:22:30.879Z,15.69
2018-10-16T07:26:35.489Z,15.75
2018-10-16T07:30:41.904Z,15.90
2018-10-16T07:34:46.420Z,15.82
2018-10-16T07:38:50.436Z,15.68
2018-10-16T07:42:54.809Z,15.73
2018-10-16T07:46:59.974Z,15.94
2018-10-16T07:51:04.227Z,16.14
2018-10-16T07:55:11.493Z,16.40
2018-10-16T07:59:15.554Z,16.46
2018-10-16T08:03:21.920Z,16.62
2018-10-16T08:07:26.004Z,16.81
2018-10-16T08:11:30.185Z,16.90
2018-10-16T08:15:35.254Z,17.10
2018-10-16T08:19:40.433Z,17.15
2018-10-16T08:23:44.619Z,17.48
2018-10-16T08:27:49.602Z,17.85
2018-10-16T08:31:57.240Z,18.08
2018-10-16T08:36:05.293Z,18.38
2018-10-16T08:40:09.624Z,18.66
2018-10-16T08:44:26.150Z,18.98
2018-10-16T08:48:45.706Z,19.22
2018-10-16T08:52:52.546Z,19.32
2018-10-16T08:56:56.652Z,19.68
2018-10-16T09:01:00.846Z,19.82
2018-10-16T09:05:06.859Z,19.86
2018-10-16T09:09:16.071Z,20.08
2018-10-16T09:13:20.874Z,20.29
2018-10-16T09:17:28.440Z,20.51
2018-10-16T09:21:33.421Z,20.67
2018-10-16T09:25:42.323Z,20.77
2018-10-16T09:29:57.374Z,20.98
2018-10-16T09:34:05.012Z,21.27
2018-10-16T09:38:10.775Z,21.14
2018-10-16T09:42:20.503Z,20.78
2018-10-16T09:46:29.456Z,23.35
2018-10-16T09:50:37.304Z,26.42
2018-10-16T09:54:42.234Z,28.17
2018-10-16T09:58:52.035Z,29.03
2018-10-16T10:03:01.747Z,31.35
2018-10-16T10:07:17.780Z,32.07
2018-10-16T10:11:23.021Z,32.94
2018-10-16T10:15:31.194Z,33.32
2018-10-16T10:19:40.853Z,32.19
2018-10-16T10:23:45.541Z,31.76
2018-10-16T10:27:53.433Z,31.07
2018-10-16T10:32:09.851Z,30.10
2018-10-16T10:36:17.891Z,30.15
2018-10-16T10:40:28.119Z,31.97
2018-10-16T10:44:38.053Z,34.35
2018-10-16T10:48:47.424Z,36.09
2018-10-16T10:52:51.758Z,35.79
2018-10-16T10:57:09.079Z,34.23
2018-10-16T11:01:16.735Z,32.07
2018-10-16T11:05:21.605Z,31.67
2018-10-16T11:09:25.892Z,32.82
2018-10-16T11:18:04.732Z,35.11
2018-10-16T11:22:08.752Z,35.62
2018-10-16T11:26:12.775Z,36.22
2018-10-16T11:30:16.827Z,34.83
2018-10-16T11:34:20.929Z,35.31
2018-10-16T11:38:25.215Z,36.02
2018-10-16T11:42:29.341Z,33.32
2018-10-16T11:46:33.397Z,31.98
2018-10-16T11:50:37.356Z,32.41
2018-10-16T11:54:41.402Z,32.54
2018-10-16T11:58:45.387Z,31.62
2018-10-16T12:02:49.517Z,30.83
2018-10-16T12:06:53.419Z,30.40
2018-10-16T12:10:57.358Z,30.96
2018-10-16T12:15:01.234Z,31.86
2018-10-16T12:19:09.985Z,30.73
2018-10-16T12:23:13.805Z,30.43
2018-10-16T12:27:17.699Z,31.22
2018-10-16T12:31:21.630Z,34.67
2018-10-16T12:35:26.918Z,33.63
2018-10-16T12:39:31.187Z,33.86
2018-10-16T12:43:35.833Z,35.00
2018-10-16T12:47:40.981Z,33.74
2018-10-16T12:51:45.594Z,32.76
2018-10-16T12:55:49.505Z,33.59
2018-10-16T12:59:53.374Z,33.79
2018-10-16T13:03:57.297Z,32.04
2018-10-16T13:08:01.250Z,31.03
2018-10-16T13:12:05.101Z,30.48
2018-10-16T13:16:09.106Z,29.48
2018-10-16T13:20:14.141Z,29.25
2018-10-16T13:24:17.972Z,30.16
2018-10-16T13:28:22.139Z,30.68
2018-10-16T13:32:26.037Z,29.61
2018-10-16T13:36:29.909Z,28.72
2018-10-16T13:40:34.334Z,28.51
2018-10-16T13:44:38.344Z,28.42
2018-10-16T13:48:42.450Z,28.60
2018-10-16T13:52:46.674Z,30.02
2018-10-16T13:56:50.586Z,32.23
2018-10-16T14:00:54.338Z,33.63
2018-10-16T14:04:58.210Z,36.13
2018-10-16T14:09:01.917Z,37.50
2018-10-16T14:13:06.274Z,35.61
2018-10-16T14:17:10.629Z,35.50
2018-10-16T14:21:14.445Z,34.69
2018-10-16T14:25:18.229Z,31.91
2018-10-16T14:29:22.057Z,30.63
2018-10-16T14:33:26.284Z,29.53
2018-10-16T14:37:30.126Z,29.00
2018-10-16T14:41:34.265Z,28.84
2018-10-16T14:45:38.139Z,28.49
2018-10-16T14:49:42.604Z,28.29
2018-10-16T14:53:46.439Z,28.19
2018-10-16T14:57:51.254Z,28.04
2018-10-16T15:01:54.980Z,27.65
2018-10-16T15:05:58.901Z,27.56
2018-10-16T15:10:02.818Z,27.41
2018-10-16T15:14:06.837Z,27.28
2018-10-16T15:18:10.627Z,27.07
2018-10-16T15:22:14.667Z,26.88
2018-10-16T15:26:18.413Z,26.73
2018-10-16T15:30:22.214Z,26.61
2018-10-16T15:34:26.053Z,26.46
2018-10-16T15:38:29.851Z,26.32
2018-10-16T15:42:34.517Z,26.18
2018-10-16T15:46:39.076Z,26.05
2018-10-16T15:50:44.156Z,25.95
2018-10-16T15:54:48.014Z,25.85
2018-10-16T15:59:06.552Z,25.71
2018-10-16T16:03:10.377Z,25.60
2018-10-16T16:07:14.185Z,25.49
2018-10-16T16:11:18.013Z,25.32
2018-10-16T16:15:21.924Z,25.24
2018-10-16T16:19:26.281Z,25.14
2018-10-16T16:23:30.095Z,24.94
2018-10-16T16:27:33.894Z,24.79
2018-10-16T16:31:37.737Z,24.72
2018-10-16T16:35:42.649Z,24.67
2018-10-16T16:39:46.812Z,24.57
2018-10-16T16:43:50.822Z,24.48
2018-10-16T16:47:54.462Z,24.33
2018-10-16T16:51:58.240Z,24.12
2018-10-16T16:56:02.132Z,23.86
2018-10-16T17:00:05.896Z,23.68
2018-10-16T17:04:09.730Z,23.50
2018-10-16T17:08:13.523Z,23.26
2018-10-16T17:12:17.324Z,23.04
2018-10-16T17:16:21.158Z,22.95
2018-10-16T17:20:25.036Z,22.72
2018-10-16T17:24:28.961Z,22.64
2018-10-16T17:28:32.769Z,22.53
2018-10-16T17:32:37.141Z,22.39
2018-10-16T17:36:40.958Z,22.23
2018-10-16T17:40:45.086Z,22.18
2018-10-16T17:44:48.910Z,22.08
2018-10-16T17:48:52.804Z,21.86
2018-10-16T17:52:56.752Z,21.42
2018-10-16T17:57:00.778Z,21.24
2018-10-16T18:01:04.527Z,21.21
2018-10-16T18:05:08.349Z,21.16
2018-10-16T18:09:12.946Z,21.08
2018-10-16T18:13:16.615Z,21.04
2018-10-16T18:17:20.529Z,21.03
2018-10-16T18:21:24.313Z,20.96
2018-10-16T18:25:28.108Z,20.87
2018-10-16T18:29:32.237Z,20.75
2018-10-16T18:33:36.378Z,20.65
2018-10-16T18:37:41.206Z,20.53
2018-10-16T18:41:45.348Z,20.45
2018-10-16T18:45:49.141Z,20.34
2018-10-16T18:49:52.965Z,20.29
2018-10-16T18:53:56.793Z,20.18
2018-10-16T18:58:00.649Z,20.08
2018-10-16T19:02:04.540Z,20.01
2018-10-16T19:06:08.625Z,19.89
2018-10-16T19:10:12.658Z,19.83
2018-10-16T19:14:16.640Z,19.73
2018-10-16T19:18:20.448Z,19.70
2018-10-16T19:22:24.254Z,19.64
2018-10-16T19:26:28.083Z,19.58
2018-10-16T19:30:32.285Z,19.43
2018-10-16T19:34:36.169Z,19.32
2018-10-16T19:38:40.113Z,19.24
2018-10-16T19:42:43.955Z,19.16
2018-10-16T19:46:48.206Z,19.12
2018-10-16T19:50:52.098Z,19.09
2018-10-16T19:54:56.382Z,19.02
2018-10-16T19:59:00.254Z,18.97
2018-10-16T20:03:04.097Z,18.88
2018-10-16T20:07:07.852Z,18.82
2018-10-16T20:11:11.711Z,18.72
2018-10-16T20:15:15.494Z,18.69
2018-10-16T20:19:19.538Z,18.62
2018-10-16T20:23:23.348Z,18.58
2018-10-16T20:27:27.157Z,18.54
2018-10-16T20:31:30.950Z,18.50
2018-10-16T20:35:34.718Z,18.47
2018-10-16T20:39:38.803Z,18.33
2018-10-16T20:43:42.583Z,18.15
2018-10-16T20:47:46.377Z,18.13
2018-10-16T20:51:50.214Z,18.10
2018-10-16T20:55:54.038Z,18.03
2018-10-16T20:59:58.087Z,17.96
2018-10-16T21:04:02.838Z,17.91
2018-10-16T21:08:06.686Z,17.84
2018-10-16T21:12:10.569Z,17.83
2018-10-16T21:16:14.342Z,17.81
2018-10-16T21:20:18.162Z,17.80
2018-10-16T21:24:22.110Z,17.79
2018-10-16T21:28:25.925Z,17.75
2018-10-16T21:32:29.793Z,17.66
2018-10-16T21:36:33.881Z,17.48
2018-10-16T21:40:37.757Z,17.37
2018-10-16T21:44:41.799Z,17.31
2018-10-16T21:48:45.601Z,17.30
2018-10-16T21:52:49.385Z,17.22
2018-10-16T21:56:53.494Z,17.23
2018-10-16T22:01:02.727Z,17.25
2018-10-16T22:05:06.455Z,17.15
2018-10-16T22:09:14.665Z,16.98
2018-10-16T22:13:18.537Z,16.93
2018-10-16T22:17:24.273Z,16.90
2018-10-16T22:21:28.068Z,16.99
2018-10-16T22:25:32.149Z,17.10
2018-10-16T22:29:35.976Z,17.17
2018-10-16T22:33:40.693Z,17.22
2018-10-16T22:37:44.678Z,17.27
2018-10-16T22:41:49.088Z,17.33
2018-10-16T22:45:53.152Z,17.28
2018-10-16T22:49:57.282Z,17.24
2018-10-16T22:54:01.472Z,17.27
2018-10-16T22:58:05.749Z,17.29
2018-10-16T23:02:09.821Z,17.29
2018-10-16T23:06:13.903Z,17.16
2018-10-16T23:10:18.089Z,17.14
2018-10-16T23:14:22.197Z,17.16
2018-10-16T23:18:26.470Z,17.18
2018-10-16T23:22:30.602Z,17.14
2018-10-16T23:26:34.971Z,17.11
2018-10-16T23:30:39.129Z,17.13
2018-10-16T23:34:43.505Z,17.14
2018-10-16T23:38:47.808Z,17.13
2018-10-16T23:42:51.798Z,17.06
2018-10-16T23:46:55.801Z,16.99
2018-10-16T23:51:00.148Z,16.80
2018-10-16T23:55:05.809Z,16.77
2018-10-16T23:59:09.868Z,16.82
